createdAt,value
2019-03-23T00:01:25.570Z,13.60
2019-03-23T00:03:54.214Z,13.50
2019-03-23T00:06:30.489Z,13.50
2019-03-23T00:08:53.032Z,13.50
2019-03-23T00:11:21.603Z,13.50
2019-03-23T00:13:50.274Z,13.50
2019-03-23T00:16:18.835Z,13.50
2019-03-23T00:18:47.439Z,13.40
2019-03-23T00:21:16.116Z,13.40
2019-03-23T00:23:47.225Z,13.40
2019-03-23T00:26:18.525Z,13.40
2019-03-23T00:28:47.156Z,13.40
2019-03-23T00:31:15.847Z,13.30
2019-03-23T00:33:44.490Z,13.30
2019-03-23T00:36:13.069Z,13.20
2019-03-23T00:38:44.415Z,13.20
2019-03-23T00:41:13.280Z,13.20
2019-03-23T00:43:44.982Z,13.20
2019-03-23T00:46:13.553Z,13.10
2019-03-23T00:48:42.135Z,13.10
2019-03-23T00:51:10.789Z,13.10
2019-03-23T00:53:39.354Z,13.00
2019-03-23T00:56:07.959Z,13.00
2019-03-23T00:58:36.615Z,13.00
2019-03-23T01:01:05.254Z,13.00
2019-03-23T01:03:33.857Z,12.90
2019-03-23T01:06:05.519Z,12.90
2019-03-23T01:08:36.859Z,12.90
2019-03-23T01:11:05.411Z,12.80
2019-03-23T01:13:34.079Z,12.80
2019-03-23T01:16:02.689Z,12.80
2019-03-23T01:18:33.943Z,12.80
2019-03-23T01:21:04.189Z,12.80
2019-03-23T01:23:34.427Z,12.70
2019-03-23T01:26:06.116Z,12.70
2019-03-23T01:28:34.703Z,12.60
2019-03-23T01:31:07.677Z,12.60
2019-03-23T01:33:36.269Z,12.60
2019-03-23T01:36:04.924Z,12.60
2019-03-23T01:38:33.530Z,12.60
2019-03-23T01:41:02.172Z,12.50
2019-03-23T01:43:30.737Z,12.50
2019-03-23T01:45:59.328Z,12.50
2019-03-23T01:48:27.896Z,12.40
2019-03-23T01:50:56.559Z,12.40
2019-03-23T01:53:28.108Z,12.40
2019-03-23T01:55:56.649Z,12.40
2019-03-23T01:58:26.803Z,12.40
2019-03-23T02:00:55.374Z,12.40
2019-03-23T02:03:23.977Z,12.40
2019-03-23T02:05:52.536Z,12.30
2019-03-23T02:08:22.742Z,12.30
2019-03-23T02:10:51.397Z,12.30
2019-03-23T02:13:19.982Z,12.30
2019-03-23T02:15:48.591Z,12.30
2019-03-23T02:18:17.246Z,12.20
2019-03-23T02:20:45.835Z,12.20
2019-03-23T02:23:16.506Z,12.20
2019-03-23T02:25:47.936Z,12.10
2019-03-23T02:28:20.491Z,12.10
2019-03-23T02:30:49.062Z,12.00
2019-03-23T02:33:20.546Z,12.00
2019-03-23T02:35:49.152Z,12.00
2019-03-23T02:38:17.757Z,11.90
2019-03-23T02:40:46.478Z,11.90
2019-03-23T02:43:15.106Z,11.90
2019-03-23T02:45:43.761Z,11.90
2019-03-23T02:48:12.372Z,11.80
2019-03-23T02:50:40.936Z,11.90
2019-03-23T02:53:09.539Z,11.80
2019-03-23T02:55:38.119Z,11.80
2019-03-23T02:58:08.224Z,11.80
2019-03-23T03:00:37.208Z,11.80
2019-03-23T03:03:05.846Z,11.80
2019-03-23T03:05:34.476Z,11.70
2019-03-23T03:08:03.064Z,11.80
2019-03-23T03:10:41.716Z,11.70
2019-03-23T03:13:13.447Z,11.70
2019-03-23T03:15:42.000Z,11.70
2019-03-23T03:18:10.695Z,11.70
2019-03-23T03:20:39.393Z,11.70
2019-03-23T03:23:08.082Z,11.60
2019-03-23T03:25:36.712Z,11.60
2019-03-23T03:28:08.239Z,11.60
2019-03-23T03:30:36.831Z,11.60
2019-03-23T03:33:05.487Z,11.60
2019-03-23T03:35:34.144Z,11.60
2019-03-23T03:38:05.800Z,11.50
2019-03-23T03:40:36.433Z,11.50
2019-03-23T03:43:05.150Z,11.50
2019-03-23T03:45:33.778Z,11.50
2019-03-23T03:48:02.369Z,11.50
2019-03-23T03:50:32.583Z,11.50
2019-03-23T03:53:01.148Z,11.50
2019-03-23T03:55:31.368Z,11.40
2019-03-23T03:57:59.953Z,11.40
2019-03-23T04:00:28.540Z,11.40
2019-03-23T04:02:57.125Z,11.30
2019-03-23T04:05:25.952Z,11.30
2019-03-23T04:07:54.645Z,11.30
2019-03-23T04:10:23.211Z,11.30
2019-03-23T04:12:51.802Z,11.30
2019-03-23T04:15:20.372Z,11.30
2019-03-23T04:17:48.942Z,11.20
2019-03-23T04:20:21.978Z,11.20
2019-03-23T04:22:53.379Z,11.20
2019-03-23T04:25:21.972Z,11.20
2019-03-23T04:27:52.653Z,11.10
2019-03-23T04:30:22.853Z,11.10
2019-03-23T04:32:51.474Z,11.10
2019-03-23T04:35:20.029Z,11.10
2019-03-23T04:37:48.635Z,11.00
2019-03-23T04:40:17.315Z,11.00
2019-03-23T04:42:46.017Z,11.00
2019-03-23T04:45:14.754Z,11.00
2019-03-23T04:47:43.312Z,10.90
2019-03-23T04:50:12.457Z,10.90
2019-03-23T04:52:43.993Z,10.90
2019-03-23T04:55:14.769Z,10.90
2019-03-23T04:57:43.535Z,10.90
2019-03-23T05:00:15.117Z,10.80
2019-03-23T05:02:45.253Z,10.80
2019-03-23T05:05:16.634Z,10.80
2019-03-23T05:07:45.255Z,10.80
2019-03-23T05:10:14.102Z,10.80
2019-03-23T05:12:42.673Z,10.80
2019-03-23T05:15:11.461Z,10.80
2019-03-23T05:17:40.114Z,10.70
2019-03-23T05:20:10.545Z,10.70
2019-03-23T05:22:39.252Z,10.60
2019-03-23T05:25:09.431Z,10.60
2019-03-23T05:27:38.054Z,10.60
2019-03-23T05:30:07.929Z,10.60
2019-03-23T05:32:36.490Z,10.60
2019-03-23T05:35:08.182Z,10.60
2019-03-23T05:37:46.319Z,10.60
2019-03-23T05:40:17.744Z,10.60
2019-03-23T05:42:52.222Z,10.60
2019-03-23T05:45:21.112Z,10.60
2019-03-23T05:47:52.544Z,10.60
2019-03-23T05:50:21.188Z,10.60
2019-03-23T05:52:51.300Z,10.60
2019-03-23T05:55:19.959Z,10.60
2019-03-23T05:57:48.538Z,10.50
2019-03-23T06:00:18.184Z,10.50
2019-03-23T06:02:46.753Z,10.50
2019-03-23T06:05:15.436Z,10.50
2019-03-23T06:07:44.007Z,10.50
2019-03-23T06:10:12.711Z,10.50
2019-03-23T06:12:41.293Z,10.50
2019-03-23T06:15:10.408Z,10.50
2019-03-23T06:17:38.992Z,10.50
2019-03-23T06:20:09.206Z,10.50
2019-03-23T06:22:37.771Z,10.50
2019-03-23T06:25:07.508Z,10.50
2019-03-23T06:27:36.069Z,10.50
2019-03-23T06:30:07.018Z,10.50
2019-03-23T06:32:36.118Z,10.50
2019-03-23T06:35:08.433Z,10.60
2019-03-23T06:37:38.694Z,10.50
2019-03-23T06:40:11.140Z,10.60
2019-03-23T06:42:39.932Z,10.60
2019-03-23T06:45:10.439Z,10.60
2019-03-23T06:47:39.076Z,10.60
2019-03-23T06:50:09.823Z,10.70
2019-03-23T06:52:38.406Z,10.70
2019-03-23T06:55:11.063Z,10.70
2019-03-23T06:57:39.633Z,10.70
2019-03-23T07:00:12.073Z,10.70
2019-03-23T07:02:40.661Z,10.80
2019-03-23T07:05:10.381Z,10.80
2019-03-23T07:07:39.030Z,10.80
2019-03-23T07:10:09.637Z,10.80
2019-03-23T07:12:41.046Z,10.90
2019-03-23T07:15:19.376Z,10.90
2019-03-23T07:17:42.119Z,10.90
2019-03-23T07:20:12.811Z,10.90
2019-03-23T07:22:41.494Z,10.90
2019-03-23T07:25:11.275Z,11.00
2019-03-23T07:27:46.238Z,11.00
2019-03-23T07:30:21.664Z,11.10
2019-03-23T07:32:53.231Z,11.10
2019-03-23T07:35:23.340Z,11.20
2019-03-23T07:37:53.548Z,11.20
2019-03-23T07:40:22.140Z,11.20
2019-03-23T07:42:53.050Z,11.30
2019-03-23T07:45:21.740Z,11.40
2019-03-23T07:47:50.303Z,11.40
2019-03-23T07:50:18.870Z,11.50
2019-03-23T07:52:47.464Z,11.50
2019-03-23T07:55:16.685Z,11.60
2019-03-23T07:57:46.377Z,11.60
2019-03-23T08:00:22.486Z,11.60
2019-03-23T08:02:51.154Z,11.70
2019-03-23T08:05:19.802Z,11.70
2019-03-23T08:07:48.434Z,11.80
2019-03-23T08:10:28.090Z,11.80
2019-03-23T08:12:56.756Z,11.90
2019-03-23T08:15:25.403Z,11.90
2019-03-23T08:17:54.252Z,11.90
2019-03-23T08:20:25.664Z,12.00
2019-03-23T08:22:55.783Z,12.00
2019-03-23T08:25:24.721Z,12.10
2019-03-23T08:27:53.298Z,12.10
2019-03-23T08:30:21.953Z,12.20
2019-03-23T08:32:50.627Z,12.20
2019-03-23T08:35:21.096Z,12.30
2019-03-23T08:37:49.741Z,12.30
2019-03-23T08:40:18.332Z,12.40
2019-03-23T08:42:46.985Z,12.40
2019-03-23T08:45:15.994Z,12.40
2019-03-23T08:47:46.118Z,12.40
2019-03-23T08:50:16.236Z,12.40
2019-03-23T08:52:46.357Z,12.40
2019-03-23T08:55:16.465Z,12.40
2019-03-23T08:57:45.205Z,12.50
2019-03-23T09:00:13.849Z,12.50
2019-03-23T09:02:43.626Z,12.50
2019-03-23T09:05:12.269Z,12.60
2019-03-23T09:07:43.812Z,12.70
2019-03-23T09:10:20.070Z,12.70
2019-03-23T09:12:53.910Z,12.70
2019-03-23T09:15:22.950Z,12.70
2019-03-23T09:17:51.507Z,12.80
2019-03-23T09:20:20.103Z,12.90
2019-03-23T09:22:48.710Z,13.00
2019-03-23T09:25:20.422Z,13.00
2019-03-23T09:27:49.119Z,13.10
2019-03-23T09:30:17.858Z,13.20
2019-03-23T09:32:46.488Z,13.30
2019-03-23T09:35:15.159Z,13.40
2019-03-23T09:37:43.748Z,13.50
2019-03-23T09:40:12.484Z,13.60
2019-03-23T09:42:41.501Z,13.60
2019-03-23T09:45:10.594Z,13.70
2019-03-23T09:47:39.924Z,13.70
2019-03-23T09:50:10.357Z,13.80
2019-03-23T09:52:38.963Z,13.90
2019-03-23T09:55:09.083Z,13.90
2019-03-23T09:57:37.728Z,14.00
2019-03-23T10:00:11.800Z,14.00
2019-03-23T10:02:41.798Z,14.10
2019-03-23T10:05:11.892Z,14.10
2019-03-23T10:07:47.551Z,14.20
2019-03-23T10:10:21.846Z,14.30
2019-03-23T10:12:46.819Z,14.30
2019-03-23T10:15:18.446Z,14.40
2019-03-23T10:17:47.003Z,14.30
2019-03-23T10:20:24.374Z,14.50
2019-03-23T10:22:54.486Z,14.50
2019-03-23T10:25:23.098Z,14.50
2019-03-23T10:27:51.668Z,14.60
2019-03-23T10:30:20.238Z,14.60
2019-03-23T10:32:48.820Z,14.80
2019-03-23T10:35:17.484Z,14.90
2019-03-23T10:37:46.066Z,15.00
2019-03-23T10:40:14.703Z,15.10
2019-03-23T10:42:43.521Z,15.20
2019-03-23T10:45:12.321Z,15.20
2019-03-23T10:47:41.739Z,15.30
2019-03-23T10:50:10.481Z,15.10
2019-03-23T10:52:39.141Z,15.10
2019-03-23T10:55:10.313Z,15.00
2019-03-23T10:57:40.638Z,15.00
2019-03-23T11:00:11.803Z,15.10
2019-03-23T11:02:40.449Z,15.20
2019-03-23T11:05:11.055Z,15.40
2019-03-23T11:07:40.075Z,15.40
2019-03-23T11:10:11.208Z,15.50
2019-03-23T11:12:42.521Z,15.50
2019-03-23T11:15:11.370Z,15.30
2019-03-23T11:17:46.945Z,15.30
2019-03-23T11:20:15.923Z,15.30
2019-03-23T11:22:44.562Z,15.40
2019-03-23T11:25:13.479Z,15.50
2019-03-23T11:27:42.171Z,15.60
2019-03-23T11:30:12.793Z,15.80
2019-03-23T11:32:41.370Z,15.90
2019-03-23T11:35:12.563Z,15.90
2019-03-23T11:37:44.014Z,16.00
2019-03-23T11:40:12.845Z,16.00
2019-03-23T11:42:49.393Z,16.00
2019-03-23T11:45:12.071Z,16.00
2019-03-23T11:47:40.788Z,16.00
2019-03-23T11:50:09.925Z,16.00
2019-03-23T11:52:39.265Z,16.10
2019-03-23T11:55:08.473Z,16.10
2019-03-23T11:57:37.541Z,16.10
2019-03-23T12:00:14.057Z,16.10
2019-03-23T12:02:43.535Z,16.10
2019-03-23T12:05:12.570Z,16.10
2019-03-23T12:07:41.207Z,16.10
2019-03-23T12:10:18.910Z,16.10
2019-03-23T12:12:50.887Z,16.30
2019-03-23T12:15:19.692Z,16.40
2019-03-23T12:17:48.923Z,16.60
2019-03-23T12:20:17.508Z,16.80
2019-03-23T12:22:46.981Z,16.80
2019-03-23T12:25:18.485Z,16.90
2019-03-23T12:27:47.154Z,17.00
2019-03-23T12:30:17.270Z,17.10
2019-03-23T12:32:45.910Z,17.10
2019-03-23T12:35:17.277Z,17.20
2019-03-23T12:37:45.838Z,17.30
2019-03-23T12:40:17.058Z,17.40
2019-03-23T12:42:45.787Z,17.40
2019-03-23T12:45:14.988Z,17.40
2019-03-23T12:47:43.576Z,17.40
2019-03-23T12:50:15.950Z,17.50
2019-03-23T12:52:47.180Z,17.40
2019-03-23T12:55:30.838Z,17.40
2019-03-23T12:58:13.907Z,17.30
2019-03-23T13:00:42.466Z,17.30
2019-03-23T13:03:11.042Z,17.30
2019-03-23T13:05:39.631Z,17.30
2019-03-23T13:08:08.188Z,17.40
2019-03-23T13:10:36.751Z,17.40
2019-03-23T13:13:05.371Z,17.50
2019-03-23T13:15:33.969Z,17.20
2019-03-23T13:18:03.184Z,17.30
2019-03-23T13:20:31.964Z,17.40
2019-03-23T13:23:00.614Z,17.40
2019-03-23T13:25:29.405Z,17.60
2019-03-23T13:27:57.977Z,17.70
2019-03-23T13:30:26.771Z,17.90
2019-03-23T13:32:55.341Z,18.00
2019-03-23T13:35:23.913Z,18.20
2019-03-23T13:37:54.488Z,18.30
2019-03-23T13:40:22.721Z,18.60
2019-03-23T13:42:51.298Z,18.60
2019-03-23T13:45:20.795Z,18.30
2019-03-23T13:47:49.369Z,18.10
2019-03-23T13:50:21.046Z,18.00
2019-03-23T13:52:49.711Z,18.00
2019-03-23T13:55:29.083Z,17.90
2019-03-23T13:58:00.726Z,18.00
2019-03-23T14:00:29.287Z,18.40
2019-03-23T14:02:58.787Z,18.60
2019-03-23T14:05:27.357Z,18.70
2019-03-23T14:07:55.931Z,18.70
2019-03-23T14:10:24.536Z,18.80
2019-03-23T14:12:53.404Z,19.00
2019-03-23T14:15:21.979Z,19.20
2019-03-23T14:17:50.580Z,19.40
2019-03-23T14:20:19.133Z,19.50
2019-03-23T14:22:47.704Z,19.30
2019-03-23T14:25:16.298Z,19.20
2019-03-23T14:27:44.879Z,19.20
2019-03-23T14:33:14.418Z,19.30
2019-03-23T14:35:54.558Z,19.50
2019-03-23T14:38:28.952Z,19.70
2019-03-23T14:40:58.398Z,19.60
2019-03-23T14:43:26.968Z,19.70
2019-03-23T14:45:58.920Z,19.90
2019-03-23T14:48:42.227Z,20.00
2019-03-23T14:51:24.186Z,19.90
2019-03-23T14:53:52.966Z,20.10
2019-03-23T14:56:23.149Z,20.20
2019-03-23T14:58:53.274Z,20.20
2019-03-23T15:01:24.585Z,20.10
2019-03-23T15:03:55.584Z,20.00
2019-03-23T15:06:25.700Z,19.80
2019-03-23T15:08:56.933Z,19.30
2019-03-23T15:11:25.544Z,19.10
2019-03-23T15:13:54.110Z,19.30
2019-03-23T15:16:25.465Z,19.50
2019-03-23T15:18:54.040Z,19.50
2019-03-23T15:21:24.209Z,19.60
2019-03-23T15:23:52.857Z,19.80
2019-03-23T15:26:27.219Z,20.00
2019-03-23T15:28:55.813Z,20.40
2019-03-23T15:31:24.403Z,20.80
2019-03-23T15:34:01.087Z,20.70
2019-03-23T15:36:35.291Z,20.80
2019-03-23T15:39:05.385Z,20.90
2019-03-23T15:41:33.993Z,21.00
2019-03-23T15:44:02.648Z,21.40
2019-03-23T15:46:38.149Z,21.50
2019-03-23T15:49:11.064Z,21.60
2019-03-23T15:51:40.483Z,21.60
2019-03-23T15:54:09.154Z,21.70
2019-03-23T15:56:37.734Z,21.60
2019-03-23T15:59:08.284Z,21.60
2019-03-23T16:01:36.861Z,21.70
2019-03-23T16:04:08.171Z,21.60
2019-03-23T16:06:39.431Z,21.70
2019-03-23T16:09:08.001Z,21.70
2019-03-23T16:11:39.547Z,22.00
2019-03-23T16:14:08.225Z,22.10
2019-03-23T16:16:36.788Z,22.20
2019-03-23T16:19:05.402Z,22.10
2019-03-23T16:21:33.971Z,22.00
2019-03-23T16:24:02.613Z,22.10
2019-03-23T16:26:31.232Z,22.00
2019-03-23T16:28:59.896Z,21.80
2019-03-23T16:31:28.602Z,21.80
2019-03-23T16:33:57.134Z,21.80
2019-03-23T16:36:25.720Z,21.90
2019-03-23T16:38:55.693Z,21.90
2019-03-23T16:41:24.214Z,22.00
2019-03-23T16:43:52.820Z,21.90
2019-03-23T16:46:21.476Z,21.80
2019-03-23T16:48:50.048Z,21.80
2019-03-23T16:51:18.646Z,21.90
2019-03-23T16:53:50.180Z,21.50
2019-03-23T16:56:18.867Z,20.90
2019-03-23T16:58:47.520Z,20.60
2019-03-23T17:01:16.113Z,20.40
2019-03-23T17:03:46.599Z,20.30
2019-03-23T17:06:15.116Z,20.20
2019-03-23T17:08:45.217Z,20.40
2019-03-23T17:11:13.792Z,20.50
2019-03-23T17:13:42.396Z,20.60
2019-03-23T17:16:11.041Z,20.70
2019-03-23T17:18:39.626Z,20.60
2019-03-23T17:21:08.216Z,20.40
2019-03-23T17:23:36.841Z,20.40
2019-03-23T17:26:05.496Z,20.20
2019-03-23T17:28:34.144Z,20.10
2019-03-23T17:31:02.772Z,19.90
2019-03-23T17:33:31.450Z,19.70
2019-03-23T17:36:00.065Z,19.60
2019-03-23T17:38:28.674Z,19.40
2019-03-23T17:40:57.291Z,19.20
2019-03-23T17:43:25.937Z,19.10
2019-03-23T17:45:54.507Z,19.00
2019-03-23T17:48:23.115Z,18.90
2019-03-23T17:50:51.689Z,18.80
2019-03-23T17:53:22.618Z,18.70
2019-03-23T17:55:51.276Z,18.50
2019-03-23T17:58:19.860Z,18.50
2019-03-23T18:00:48.543Z,18.40
2019-03-23T18:03:17.113Z,18.40
2019-03-23T18:05:45.754Z,18.30
2019-03-23T18:08:14.502Z,18.20
2019-03-23T18:10:43.076Z,18.20
2019-03-23T18:13:16.933Z,18.10
2019-03-23T18:15:45.565Z,18.00
2019-03-23T18:18:15.676Z,18.00
2019-03-23T18:20:44.281Z,17.90
2019-03-23T18:23:12.910Z,17.80
2019-03-23T18:25:41.547Z,17.70
2019-03-23T18:28:13.247Z,17.60
2019-03-23T18:30:43.344Z,17.50
2019-03-23T18:33:17.447Z,17.50
2019-03-23T18:35:52.992Z,17.40
2019-03-23T18:38:36.190Z,17.40
2019-03-23T18:41:08.246Z,17.30
2019-03-23T18:43:36.973Z,17.20
2019-03-23T18:46:05.628Z,17.10
2019-03-23T18:48:38.236Z,17.10
2019-03-23T18:51:07.162Z,17.10
2019-03-23T18:53:35.746Z,17.00
2019-03-23T18:56:04.452Z,17.00
2019-03-23T18:58:34.807Z,16.90
2019-03-23T19:01:03.442Z,16.80
2019-03-23T19:03:32.040Z,16.80
2019-03-23T19:06:00.619Z,16.70
2019-03-23T19:08:29.184Z,16.70
2019-03-23T19:11:03.009Z,16.70
2019-03-23T19:13:37.877Z,16.60
2019-03-23T19:16:01.875Z,16.50
2019-03-23T19:18:39.374Z,16.40
2019-03-23T19:21:08.051Z,16.40
2019-03-23T19:23:39.781Z,16.40
2019-03-23T19:26:11.502Z,16.40
2019-03-23T19:28:40.192Z,16.40
2019-03-23T19:31:08.838Z,16.40
2019-03-23T19:33:37.404Z,16.40
2019-03-23T19:36:07.558Z,16.40
2019-03-23T19:38:38.804Z,16.40
2019-03-23T19:41:07.391Z,16.40
2019-03-23T19:43:35.971Z,16.30
2019-03-23T19:46:04.592Z,16.30
2019-03-23T19:48:33.212Z,16.40
2019-03-23T19:51:03.706Z,16.40
2019-03-23T19:53:32.123Z,16.50
2019-03-23T19:56:00.761Z,16.60
2019-03-23T19:58:29.341Z,16.60
2019-03-23T20:00:57.959Z,16.60
2019-03-23T20:03:27.454Z,16.70
2019-03-23T20:05:58.764Z,16.70
2019-03-23T20:08:27.347Z,16.60
2019-03-23T20:10:57.791Z,16.60
2019-03-23T20:13:29.414Z,16.60
2019-03-23T20:15:57.971Z,16.60
2019-03-23T20:18:26.604Z,16.60
2019-03-23T20:20:55.220Z,16.60
2019-03-23T20:23:23.796Z,16.50
2019-03-23T20:25:52.389Z,16.50
2019-03-23T20:28:21.024Z,16.50
2019-03-23T20:30:49.674Z,16.50
2019-03-23T20:33:19.670Z,16.50
2019-03-23T20:36:12.212Z,16.50
2019-03-23T20:41:37.418Z,15.50
2019-03-23T20:44:41.972Z,15.00
2019-03-23T20:47:13.094Z,14.70
2019-03-23T20:49:43.424Z,14.30
2019-03-23T20:52:13.940Z,14.10
2019-03-23T20:54:42.698Z,13.90
2019-03-23T20:57:24.096Z,13.80
2019-03-23T20:59:52.046Z,13.90
2019-03-23T21:02:20.647Z,14.00
2019-03-23T21:04:50.937Z,14.00
2019-03-23T21:07:19.549Z,14.10
2019-03-23T21:09:48.127Z,14.30
2019-03-23T21:12:16.931Z,14.40
2019-03-23T21:14:45.602Z,14.50
2019-03-23T21:17:14.242Z,14.60
2019-03-23T21:19:44.372Z,14.70
2019-03-23T21:22:12.946Z,14.70
2019-03-23T21:24:41.609Z,14.80
2019-03-23T21:27:10.904Z,14.80
2019-03-23T21:29:41.207Z,14.80
2019-03-23T21:32:12.625Z,14.90
2019-03-23T21:34:41.202Z,14.90
2019-03-23T21:37:09.790Z,14.90
2019-03-23T21:39:38.375Z,14.90
2019-03-23T21:42:07.157Z,14.80
2019-03-23T21:44:35.735Z,14.70
2019-03-23T21:47:04.387Z,14.70
2019-03-23T21:49:32.992Z,14.60
2019-03-23T21:52:01.575Z,14.50
2019-03-23T21:54:30.786Z,14.30
2019-03-23T21:56:59.681Z,14.20
2019-03-23T21:59:30.182Z,14.10
2019-03-23T22:01:58.635Z,13.90
2019-03-23T22:04:27.260Z,13.70
2019-03-23T22:06:55.998Z,13.60
2019-03-23T22:09:24.596Z,13.50
2019-03-23T22:11:53.167Z,13.40
2019-03-23T22:14:21.853Z,13.40
2019-03-23T22:16:51.349Z,13.40
2019-03-23T22:19:20.014Z,13.30
2019-03-23T22:21:48.572Z,13.30
2019-03-23T22:24:17.166Z,13.20
2019-03-23T22:26:47.420Z,13.20
2019-03-23T22:29:16.007Z,13.30
2019-03-23T22:31:44.595Z,13.30
2019-03-23T22:34:13.154Z,13.40
2019-03-23T22:36:41.724Z,13.60
2019-03-23T22:39:10.335Z,13.60
2019-03-23T22:41:38.916Z,13.50
2019-03-23T22:44:07.686Z,13.60
2019-03-23T22:46:36.378Z,13.40
2019-03-23T22:49:05.116Z,13.40
2019-03-23T22:51:33.736Z,13.40
2019-03-23T22:54:02.716Z,13.40
2019-03-23T22:56:31.345Z,13.40
2019-03-23T22:59:00.297Z,13.20
2019-03-23T23:01:32.079Z,13.10
2019-03-23T23:04:02.672Z,13.00
2019-03-23T23:06:39.153Z,13.00
2019-03-23T23:09:18.683Z,13.10
2019-03-23T23:11:58.339Z,13.10
2019-03-23T23:14:35.312Z,13.00
2019-03-23T23:17:12.627Z,13.10
2019-03-23T23:19:42.340Z,13.30
2019-03-23T23:22:11.008Z,13.50
2019-03-23T23:24:50.478Z,13.50
2019-03-23T23:27:19.169Z,13.60
2019-03-23T23:29:47.819Z,13.60
2019-03-23T23:32:17.372Z,13.70
2019-03-23T23:34:46.048Z,13.70
2019-03-23T23:37:16.305Z,13.70
2019-03-23T23:39:44.915Z,13.80
2019-03-23T23:42:13.792Z,13.80
2019-03-23T23:44:42.373Z,13.80
2019-03-23T23:47:10.965Z,13.70
2019-03-23T23:49:39.566Z,13.70
2019-03-23T23:52:08.248Z,13.70
2019-03-23T23:54:36.824Z,13.70
2019-03-23T23:57:11.085Z,13.60
2019-03-23T23:59:39.683Z,13.60
